Tampa, Florida
Traffic Map
Current Weather Conditions
Tampa, Florida
Scattered Clouds
Scattered Clouds
65°
Feels Like: 65°
Wind Chill: 65° Ceiling: Unl
Heat Index: 65° Visibility: 10mi
Dew Point: 61° Wind: 0mph
Humidity: 87% Direction: ° ()
Pressure: 29.93in Gusts: 0mph
Raw Report DataKTPA 231053Z 00000KT 10SM SCT020 18/16 A2993 RMK AO2 SLP135 T01830161 $
Traffic Incident Summary
Active as of:
Severity:
Category:
InformationThere was an issue retrieving the traffic information for this location. Please try a different location or try again shortly.
Advertisements
At Last! Intellicast now available for iPhone and Android